Elton, Wisconsin
Current Conditions -  °F | °C
As of 10:55 AM on Thursday 30 Oct 2014 (Local Time) from KAIG Reporting Station
Overcast Overcast  
Wind Chill: 32°   Ceiling: 8000
Heat Index: 37°   Visibility: 10mi
Dew Point: 33°   Wind: 7mph
Humidity: 86%   Direction: 280°W
Pressure: 30.05"   Gusts: NA
Location:  45.17°N, 88.89°W
Report Text: KAIG 301555Z AUTO 28006KT 10SM SCT065 OVC080 03/01 A3005 RMK AO2 T00300008
Loading
Personal Weather Stations






























Interactive Weather Map New forecast layout! Learn more

10-Day Weather Forecast

Advertisements
Track Severe Weather on mobile